Time;durP1;ratioP1;P1;durP2;ratioP2;P2;SDS_P1;SDS_P2;PMS_P1;PMS_P2;Temp;Humidity;BMP_temperature;BMP_pressure;BME280_temperature;BME280_humidity;BME280_pressure;Samples;Min_cycle;Max_cycle;Signal;HPM_P1;HPM_P2
2022/03/10 00:01:07;;;;;;;18.90;8.15;;;;;;;-5.30;75.61;99434.56;3207912;23;20055;-86
2022/03/10 00:02:22;;;;;;;23.60;9.30;;;;;;;-5.31;76.19;99437.00;3208009;23;20502;-89
2022/03/10 00:03:38;;;;;;;20.23;8.15;;;;;;;-5.38;75.88;99438.38;3207529;23;20091;-87
2022/03/10 00:04:53;;;;;;;22.38;8.25;;;;;;;-5.38;76.05;99433.25;3207569;23;20032;-87
2022/03/10 00:06:09;;;;;;;19.60;8.88;;;;;;;-5.38;76.08;99435.81;3207208;23;20516;-87
2022/03/10 00:07:25;;;;;;;18.38;7.93;;;;;;;-5.40;76.03;99445.94;3207708;23;20016;-86
2022/03/10 00:08:40;;;;;;;19.17;8.75;;;;;;;-5.44;75.92;99441.47;3208879;23;20025;-84
2022/03/10 00:09:56;;;;;;;17.98;8.23;;;;;;;-5.45;75.64;99443.94;3192333;23;20021;-88
2022/03/10 00:11:11;;;;;;;21.00;8.52;;;;;;;-5.46;75.42;99448.19;3198522;23;20028;-89
2022/03/10 00:12:27;;;;;;;17.60;8.10;;;;;;;-5.46;75.17;99455.84;3208948;23;20021;-87
2022/03/10 00:13:43;;;;;;;18.80;8.75;;;;;;;-5.47;75.59;99451.53;3207772;23;20105;-87
2022/03/10 00:14:59;;;;;;;22.85;9.05;;;;;;;-5.49;75.96;99460.78;3210684;23;20621;-88
2022/03/10 00:16:15;;;;;;;23.23;8.55;;;;;;;-5.49;75.87;99459.91;3192044;23;20496;-85
2022/03/10 00:17:31;;;;;;;22.73;9.27;;;;;;;-5.50;75.93;99455.59;3198157;23;20119;-87
2022/03/10 00:18:47;;;;;;;19.33;8.45;;;;;;;-5.58;75.25;99463.75;3208097;23;20020;-87
2022/03/10 00:20:04;;;;;;;17.83;8.40;;;;;;;-5.69;74.82;99465.69;3207970;23;20028;-90
2022/03/10 00:21:19;;;;;;;17.58;7.78;;;;;;;-5.70;75.00;99460.53;3207451;23;20020;-85
2022/03/10 00:22:43;;;;;;;16.50;8.07;;;;;;;-5.71;75.14;99467.28;3207394;23;20031;-88
2022/03/10 00:23:59;;;;;;;19.88;8.02;;;;;;;-5.67;76.18;99469.19;3207554;23;20012;-86
2022/03/10 00:25:16;;;;;;;20.52;8.65;;;;;;;-5.68;76.53;99475.09;3207320;23;20075;-87
2022/03/10 00:26:31;;;;;;;22.13;8.88;;;;;;;-5.79;76.30;99472.78;3206937;23;20020;-85
2022/03/10 00:27:47;;;;;;;19.20;9.02;;;;;;;-5.81;76.25;99478.69;3207287;23;20023;-87
2022/03/10 00:29:04;;;;;;;23.13;9.50;;;;;;;-5.82;76.70;99473.47;3206464;23;20028;-88
2022/03/10 00:30:19;;;;;;;19.10;8.18;;;;;;;-5.81;77.07;99481.22;3207255;23;20012;-87
2022/03/10 00:31:35;;;;;;;20.98;8.90;;;;;;;-5.77;77.80;99482.28;3207298;23;20350;-86
2022/03/10 00:32:52;;;;;;;21.10;8.50;;;;;;;-5.77;78.29;99477.19;3207091;23;20235;-88
2022/03/10 00:34:09;;;;;;;21.50;9.25;;;;;;;-5.79;79.88;99480.44;3207177;23;20021;-85
2022/03/10 00:35:25;;;;;;;19.63;7.93;;;;;;;-5.82;78.74;99489.69;3207199;23;20023;-88
2022/03/10 00:36:41;;;;;;;22.13;9.45;;;;;;;-5.80;78.96;99479.53;3206834;23;20020;-87
2022/03/10 00:37:58;;;;;;;20.45;8.75;;;;;;;-5.84;78.69;99488.72;3190387;23;20484;-86
2022/03/10 00:39:14;;;;;;;22.10;8.65;;;;;;;-5.85;78.29;99483.53;3197469;23;20718;-87
2022/03/10 00:40:30;;;;;;;21.67;8.43;;;;;;;-5.85;77.57;99484.41;3207219;23;20017;-87
2022/03/10 00:41:45;;;;;;;22.10;8.40;;;;;;;-5.89;77.36;99487.56;3207141;23;20177;-87
2022/03/10 00:43:01;;;;;;;22.83;9.30;;;;;;;-5.89;76.86;99487.56;3207272;23;20016;-89
2022/03/10 00:44:17;;;;;;;19.05;8.52;;;;;;;-5.90;76.68;99490.06;3207193;23;20021;-85
2022/03/10 00:45:32;;;;;;;18.80;7.63;;;;;;;-5.90;77.24;99488.38;3207186;23;20074;-87
2022/03/10 00:46:48;;;;;;;19.77;7.95;;;;;;;-5.84;76.73;99486.16;3206572;23;20021;-87
2022/03/10 00:48:03;;;;;;;21.00;8.38;;;;;;;-5.83;77.04;99487.91;3207004;23;20016;-87
2022/03/10 00:49:19;;;;;;;22.52;8.82;;;;;;;-5.84;76.90;99492.94;3207278;23;20048;-87
2022/03/10 00:50:35;;;;;;;21.77;8.90;;;;;;;-5.89;76.25;99489.25;3206895;23;20024;-88
2022/03/10 00:51:50;;;;;;;21.00;7.78;;;;;;;-5.93;76.76;99490.75;3206995;23;20025;-89
2022/03/10 00:53:06;;;;;;;23.02;9.05;;;;;;;-5.95;77.77;99489.78;3207196;23;20103;-86
2022/03/10 00:54:22;;;;;;;21.20;8.20;;;;;;;-5.93;78.27;99489.91;3207187;23;20321;-87
2022/03/10 00:55:38;;;;;;;24.70;9.43;;;;;;;-5.95;78.37;99494.91;3207074;23;20039;-87
2022/03/10 00:56:53;;;;;;;23.05;8.48;;;;;;;-5.94;77.62;99491.56;3207316;23;20059;-87
2022/03/10 00:58:08;;;;;;;17.83;7.68;;;;;;;-5.96;77.50;99488.91;3207050;23;20013;-87
2022/03/10 00:59:24;;;;;;;22.73;8.73;;;;;;;-5.98;76.92;99487.94;3206648;23;20832;-90
2022/03/10 01:00:40;;;;;;;17.33;7.80;;;;;;;-6.00;77.15;99481.88;3206545;23;20453;-88
2022/03/10 01:01:55;;;;;;;23.73;8.93;;;;;;;-6.03;76.88;99478.31;3207504;23;20046;-89
2022/03/10 01:03:11;;;;;;;21.65;8.90;;;;;;;-6.01;76.58;99487.78;3208143;23;20020;-87
2022/03/10 01:04:27;;;;;;;19.70;8.65;;;;;;;-6.03;76.66;99481.75;3208114;23;20043;-93
2022/03/10 01:05:42;;;;;;;17.25;7.60;;;;;;;-6.04;76.52;99484.22;3207962;23;20091;-89
2022/03/10 01:06:58;;;;;;;16.55;7.25;;;;;;;-6.07;76.26;99484.06;3207787;23;20043;-87
2022/03/10 01:08:13;;;;;;;24.85;9.10;;;;;;;-6.12;76.05;99486.34;3207895;23;20024;-88
2022/03/10 01:09:29;;;;;;;22.90;8.63;;;;;;;-6.17;76.00;99483.53;3207910;23;20021;-88
2022/03/10 01:10:45;;;;;;;25.92;9.40;;;;;;;-6.22;75.67;99486.63;3207995;23;20313;-87
2022/03/10 01:12:00;;;;;;;25.75;9.48;;;;;;;-6.22;75.83;99484.97;3207927;23;20034;-88
2022/03/10 01:13:18;;;;;;;21.70;8.52;;;;;;;-6.20;75.99;99485.06;3208366;23;20556;-87
2022/03/10 01:14:34;;;;;;;25.70;9.30;;;;;;;-6.28;77.49;99485.50;3209663;23;20016;-85
2022/03/10 01:15:49;;;;;;;18.10;8.48;;;;;;;-6.30;77.84;99488.72;3208108;23;20044;-86
2022/03/10 01:17:05;;;;;;;20.63;8.25;;;;;;;-6.32;77.28;99486.13;3210575;23;20498;-88
2022/03/10 01:18:20;;;;;;;18.60;8.25;;;;;;;-6.31;77.22;99490.41;3191953;23;20029;-88
2022/03/10 01:19:36;;;;;;;22.02;8.93;;;;;;;-6.34;77.18;99489.38;3198404;23;20017;-87
2022/03/10 01:20:52;;;;;;;22.63;9.55;;;;;;;-6.35;77.32;99487.59;3207917;23;20554;-87
2022/03/10 01:22:07;;;;;;;22.67;9.50;;;;;;;-6.40;78.84;99483.13;3208999;23;20066;-87
2022/03/10 01:23:23;;;;;;;23.65;9.50;;;;;;;-6.33;79.36;99488.56;3208809;23;20023;-87
2022/03/10 01:24:41;;;;;;;18.45;8.20;;;;;;;-6.29;79.72;99490.50;3192151;23;20028;-86
2022/03/10 01:25:56;;;;;;;21.83;9.18;;;;;;;-6.28;79.90;99489.72;3199476;23;20021;-88
2022/03/10 01:27:12;;;;;;;18.55;8.43;;;;;;;-6.28;79.92;99500.78;3208316;23;20331;-86
2022/03/10 01:28:27;;;;;;;21.45;9.52;;;;;;;-6.26;79.97;99490.69;3208303;23;20051;-87
2022/03/10 01:29:43;;;;;;;25.75;9.55;;;;;;;-6.28;79.13;99488.03;3213005;23;20027;-85
2022/03/10 01:30:58;;;;;;;20.85;8.32;;;;;;;-6.28;79.36;99492.28;3208775;23;20093;-87
2022/03/10 01:32:14;;;;;;;21.58;9.07;;;;;;;-6.31;79.19;99492.06;3208798;23;20020;-86
2022/03/10 01:33:30;;;;;;;20.45;7.68;;;;;;;-6.35;78.93;99496.16;3210384;23;20016;-85
2022/03/10 01:34:45;;;;;;;22.83;9.48;;;;;;;-6.40;78.34;99494.97;3211525;23;20311;-87
2022/03/10 01:36:01;;;;;;;23.20;9.43;;;;;;;-6.42;78.77;99494.03;3209467;23;20017;-87
2022/03/10 01:37:16;;;;;;;21.17;8.43;;;;;;;-6.44;79.30;99493.06;3211670;23;20020;-87
2022/03/10 01:38:32;;;;;;;19.27;8.20;;;;;;;-6.44;79.09;99495.63;3216806;23;20025;-87
2022/03/10 01:39:48;;;;;;;22.17;9.07;;;;;;;-6.42;79.26;99500.00;3215906;23;20022;-90
2022/03/10 01:41:03;;;;;;;18.45;8.85;;;;;;;-6.43;79.28;99492.28;3215357;23;20021;-88
2022/03/10 01:42:19;;;;;;;19.40;9.23;;;;;;;-6.41;79.65;99491.56;3216458;23;20024;-86
2022/03/10 01:43:57;;;;;;;19.13;8.63;;;;;;;-6.35;79.55;99490.16;3209753;23;20066;-86
2022/03/10 01:45:14;;;;;;;22.92;9.10;;;;;;;-6.36;78.79;99488.41;3208874;23;20017;-87
2022/03/10 01:46:31;;;;;;;22.60;8.80;;;;;;;-6.38;78.66;99485.75;3208443;23;20021;-85
2022/03/10 01:47:47;;;;;;;22.35;9.00;;;;;;;-6.35;79.05;99495.25;3209057;23;20047;-86
2022/03/10 01:49:04;;;;;;;26.15;9.23;;;;;;;-6.35;79.16;99496.16;3208214;23;20016;-86
2022/03/10 01:50:20;;;;;;;23.17;9.38;;;;;;;-6.32;78.79;99495.41;3208318;23;20526;-86
2022/03/10 01:51:36;;;;;;;20.92;9.30;;;;;;;-6.35;78.73;99496.16;3208240;23;20039;-86
2022/03/10 01:52:51;;;;;;;20.45;8.60;;;;;;;-6.39;78.85;99496.75;3208156;23;20183;-87
2022/03/10 01:54:07;;;;;;;19.35;8.23;;;;;;;-6.39;78.33;99500.19;3208265;23;20016;-86
2022/03/10 01:55:23;;;;;;;23.85;9.32;;;;;;;-6.44;79.27;99500.72;3207800;23;20017;-87
2022/03/10 01:56:39;;;;;;;21.38;9.23;;;;;;;-6.46;79.35;99503.16;3207974;23;20506;-91
2022/03/10 01:57:55;;;;;;;23.02;9.27;;;;;;;-6.50;79.11;99506.34;3207963;23;20067;-86
2022/03/10 01:59:12;;;;;;;17.15;8.55;;;;;;;-6.51;79.27;99509.66;3207857;23;20020;-86
2022/03/10 02:00:28;;;;;;;22.60;9.00;;;;;;;-6.52;79.20;99502.81;3207897;23;20340;-89
2022/03/10 02:01:44;;;;;;;21.42;9.40;;;;;;;-6.55;78.74;99507.75;3207744;23;20096;-88
2022/03/10 02:02:59;;;;;;;22.17;9.02;;;;;;;-6.55;79.87;99510.28;3207725;23;20017;-87
2022/03/10 02:04:15;;;;;;;17.70;8.82;;;;;;;-6.60;79.28;99504.03;3207741;23;20017;-88
2022/03/10 02:05:32;;;;;;;21.30;9.55;;;;;;;-6.60;79.08;99512.56;3207967;23;20031;-87
2022/03/10 02:06:48;;;;;;;22.27;8.80;;;;;;;-6.63;78.49;99508.97;3207710;23;20714;-87
2022/03/10 02:11:12;;;;;;;18.77;8.43;;;;;;;-6.69;79.42;99518.00;3207734;23;20023;-87
2022/03/10 02:12:28;;;;;;;17.95;7.82;;;;;;;-6.66;79.39;99514.75;3209211;23;20028;-87
2022/03/10 02:13:43;;;;;;;18.48;8.13;;;;;;;-6.67;79.46;99518.09;3210492;23;20031;-88
2022/03/10 02:18:19;;;;;;;19.75;8.10;;;;;;;-6.71;78.76;99521.25;3208234;23;20024;-87
2022/03/10 02:19:34;;;;;;;22.45;8.65;;;;;;;-6.80;78.80;99524.13;3208224;23;20021;-85
2022/03/10 02:20:50;;;;;;;23.75;8.68;;;;;;;-6.83;79.00;99522.28;3209283;23;20039;-87
2022/03/10 02:22:11;;;;;;;21.63;8.65;;;;;;;-6.73;80.38;99525.38;3209025;23;20017;-86
2022/03/10 02:23:26;;;;;;;21.25;8.73;;;;;;;-6.74;80.29;99524.50;3208738;23;20448;-87
2022/03/10 02:24:43;;;;;;;21.88;9.30;;;;;;;-6.76;80.61;99520.97;3208018;23;20206;-86
2022/03/10 02:25:59;;;;;;;23.77;9.20;;;;;;;-6.73;80.25;99522.84;3192153;23;20047;-87
2022/03/10 02:27:23;;;;;;;21.50;8.35;;;;;;;-6.77;80.01;99519.22;3192452;23;20032;-86
2022/03/10 02:28:40;;;;;;;17.73;7.57;;;;;;;-6.83;79.62;99522.28;3192031;23;20044;-85
2022/03/10 02:30:01;;;;;;;17.77;8.20;;;;;;;-6.83;79.09;99529.06;3192203;23;20441;-87
2022/03/10 02:31:16;;;;;;;20.88;7.43;;;;;;;-6.84;79.06;99523.06;3192316;23;20025;-87
2022/03/10 02:32:32;;;;;;;19.00;7.97;;;;;;;-6.80;79.06;99526.69;3192335;23;20381;-86
2022/03/10 02:33:48;;;;;;;20.23;8.35;;;;;;;-6.76;79.05;99528.63;3192371;23;20021;-86
2022/03/10 02:35:03;;;;;;;17.92;8.02;;;;;;;-6.76;79.94;99531.16;3192182;23;20021;-90
2022/03/10 02:36:19;;;;;;;18.35;7.80;;;;;;;-6.77;80.43;99533.59;3192202;23;20113;-86
2022/03/10 02:37:35;;;;;;;19.10;7.78;;;;;;;-6.78;80.59;99527.66;3192413;23;20104;-86
2022/03/10 02:38:51;;;;;;;19.55;8.43;;;;;;;-6.78;80.75;99536.94;3191847;23;20031;-86
2022/03/10 02:40:07;;;;;;;19.27;7.25;;;;;;;-6.81;80.85;99524.94;3191995;23;20021;-88
2022/03/10 02:41:23;;;;;;;18.80;7.88;;;;;;;-6.82;80.83;99539.31;3175537;23;20017;-88
2022/03/10 02:42:39;;;;;;;22.83;9.15;;;;;;;-6.84;81.52;99540.91;3182150;23;20021;-87
2022/03/10 02:43:55;;;;;;;17.92;9.02;;;;;;;-6.86;82.01;99534.84;3191989;23;20021;-87
2022/03/10 02:45:11;;;;;;;22.70;8.90;;;;;;;-6.87;81.85;99537.28;3191573;23;20364;-86
2022/03/10 02:46:27;;;;;;;21.00;8.77;;;;;;;-6.89;81.30;99534.66;3191779;23;20348;-86
2022/03/10 02:47:42;;;;;;;20.05;8.27;;;;;;;-6.89;80.78;99539.75;3192108;23;20394;-89
2022/03/10 02:48:59;;;;;;;20.98;9.27;;;;;;;-6.88;80.89;99538.97;3192288;23;20313;-87
2022/03/10 02:50:14;;;;;;;19.73;8.95;;;;;;;-6.89;80.25;99546.50;3192316;23;20432;-86
2022/03/10 02:51:30;;;;;;;20.20;8.25;;;;;;;-6.90;79.39;99549.84;3191708;23;20021;-86
2022/03/10 02:52:46;;;;;;;20.17;8.55;;;;;;;-6.88;78.96;99551.69;3192001;23;20017;-86
2022/03/10 02:54:01;;;;;;;20.27;8.23;;;;;;;-6.90;77.95;99550.72;3192320;23;20017;-90
2022/03/10 02:55:17;;;;;;;22.75;9.20;;;;;;;-6.94;78.15;99553.88;3192341;23;20028;-87
2022/03/10 02:56:33;;;;;;;21.85;8.55;;;;;;;-6.99;78.25;99556.13;3191793;23;20095;-87
2022/03/10 02:57:49;;;;;;;21.10;8.88;;;;;;;-6.99;78.28;99556.13;3192351;23;20048;-86
2022/03/10 02:59:05;;;;;;;21.40;9.00;;;;;;;-6.99;78.52;99552.72;3191989;23;20024;-87
2022/03/10 03:00:20;;;;;;;19.45;8.65;;;;;;;-6.96;78.14;99552.91;3191872;23;20021;-86
2022/03/10 03:01:37;;;;;;;20.25;8.93;;;;;;;-6.96;77.72;99556.34;3192264;23;20352;-86
2022/03/10 03:02:52;;;;;;;20.25;8.10;;;;;;;-6.96;76.71;99558.88;3191829;23;20079;-88
2022/03/10 03:04:08;;;;;;;19.48;8.23;;;;;;;-7.01;77.24;99556.84;3192090;23;20075;-86
2022/03/10 03:05:23;;;;;;;25.52;8.65;;;;;;;-7.13;77.20;99556.97;3191764;23;20025;-86
2022/03/10 03:06:39;;;;;;;17.98;8.68;;;;;;;-7.22;77.34;99562.38;3191504;23;20099;-87
2022/03/10 03:07:56;;;;;;;17.55;9.23;;;;;;;-7.33;77.95;99565.91;3191714;23;20431;-86
2022/03/10 03:09:12;;;;;;;21.35;8.40;;;;;;;-7.38;78.42;99563.13;3191863;23;20021;-86
2022/03/10 03:10:27;;;;;;;23.58;9.18;;;;;;;-7.38;78.72;99568.22;3192082;23;20027;-85
2022/03/10 03:11:43;;;;;;;21.35;9.38;;;;;;;-7.34;78.99;99567.59;3191983;23;20017;-86
2022/03/10 03:12:59;;;;;;;20.40;9.02;;;;;;;-7.31;79.16;99570.34;3191884;23;20521;-87
2022/03/10 03:14:15;;;;;;;22.90;9.50;;;;;;;-7.30;78.93;99577.19;3192122;23;20103;-87
2022/03/10 03:15:30;;;;;;;20.48;8.95;;;;;;;-7.31;78.99;99577.97;3191835;23;20108;-87
2022/03/10 03:16:46;;;;;;;22.05;8.38;;;;;;;-7.28;78.38;99580.69;3191274;23;20021;-87
2022/03/10 03:18:02;;;;;;;23.45;8.43;;;;;;;-7.24;78.15;99580.13;3192067;23;20774;-88
2022/03/10 03:19:18;;;;;;;19.83;8.65;;;;;;;-7.29;78.33;99576.38;3191765;23;20076;-86
2022/03/10 03:20:33;;;;;;;21.98;8.68;;;;;;;-7.32;78.00;99576.22;3191983;23;20021;-86
2022/03/10 03:21:50;;;;;;;18.85;8.07;;;;;;;-7.36;78.39;99571.72;3191622;23;20812;-86
2022/03/10 03:23:06;;;;;;;20.30;8.10;;;;;;;-7.38;78.27;99574.16;3191719;23;20021;-86
2022/03/10 03:24:22;;;;;;;20.15;8.65;;;;;;;-7.42;79.10;99578.97;3191940;23;20020;-86
2022/03/10 03:25:37;;;;;;;20.50;8.82;;;;;;;-7.47;80.02;99575.25;3191655;23;20239;-87
2022/03/10 03:26:53;;;;;;;20.13;9.25;;;;;;;-7.53;80.23;99580.84;3192143;23;20087;-86
2022/03/10 03:28:09;;;;;;;21.52;7.75;;;;;;;-7.54;80.82;99579.97;3191955;23;20053;-86
2022/03/10 03:29:24;;;;;;;20.52;9.02;;;;;;;-7.47;80.49;99581.25;3191665;23;20095;-87
2022/03/10 03:30:39;;;;;;;23.92;8.98;;;;;;;-7.45;80.48;99578.78;3191915;23;20353;-86
2022/03/10 03:31:55;;;;;;;18.75;8.73;;;;;;;-7.44;80.58;99580.53;3191746;23;20518;-87
2022/03/10 03:33:11;;;;;;;19.60;8.73;;;;;;;-7.39;79.85;99581.72;3191611;23;20025;-88
2022/03/10 03:34:26;;;;;;;18.05;7.75;;;;;;;-7.41;79.72;99579.06;3192035;23;20459;-89
2022/03/10 03:35:42;;;;;;;18.92;8.20;;;;;;;-7.35;79.48;99586.19;3191891;23;20025;-87
2022/03/10 03:36:58;;;;;;;21.40;8.15;;;;;;;-7.35;79.44;99581.13;3191987;23;20519;-87
2022/03/10 03:38:13;;;;;;;19.45;8.02;;;;;;;-7.36;79.35;99589.53;3191711;23;20017;-87
2022/03/10 03:39:29;;;;;;;20.98;8.75;;;;;;;-7.37;80.43;99582.69;3191855;23;20025;-86
2022/03/10 03:40:44;;;;;;;23.85;9.70;;;;;;;-7.37;79.79;99578.47;3192019;23;20017;-86
2022/03/10 03:42:00;;;;;;;18.70;8.15;;;;;;;-7.42;79.93;99591.69;3191758;23;20017;-86
2022/03/10 03:43:16;;;;;;;22.50;8.82;;;;;;;-7.42;79.71;99578.97;3191601;23;20024;-86
2022/03/10 03:44:32;;;;;;;20.10;8.18;;;;;;;-7.43;79.17;99587.38;3192142;23;20013;-87
2022/03/10 03:45:47;;;;;;;17.17;7.90;;;;;;;-7.46;79.00;99588.09;3191674;23;20020;-87
2022/03/10 03:47:03;;;;;;;22.92;8.75;;;;;;;-7.56;79.10;99588.28;3191641;23;20079;-86
2022/03/10 03:48:19;;;;;;;20.30;8.82;;;;;;;-7.59;79.30;99591.50;3192001;23;20025;-88
2022/03/10 03:49:34;;;;;;;17.13;8.38;;;;;;;-7.57;78.93;99587.41;3191884;23;20028;-88
2022/03/10 03:50:50;;;;;;;18.60;8.45;;;;;;;-7.57;78.93;99586.53;3191865;23;20044;-87
2022/03/10 03:52:05;;;;;;;17.95;8.00;;;;;;;-7.59;79.64;99590.66;3191767;23;20017;-86
2022/03/10 03:53:21;;;;;;;22.98;9.02;;;;;;;-7.60;80.20;99592.28;3191783;23;20025;-87
2022/03/10 03:54:37;;;;;;;17.17;8.23;;;;;;;-7.60;79.87;99599.91;3191863;23;20024;-86
2022/03/10 03:55:53;;;;;;;20.13;7.93;;;;;;;-7.59;79.95;99593.19;3191595;23;20024;-86
2022/03/10 03:57:09;;;;;;;19.75;8.57;;;;;;;-7.58;79.94;99585.63;3191910;23;20210;-86
2022/03/10 03:58:25;;;;;;;20.65;8.35;;;;;;;-7.60;79.59;99581.25;3191396;23;20374;-86
2022/03/10 03:59:41;;;;;;;18.80;8.10;;;;;;;-7.59;79.16;99583.00;3191413;23;20021;-87
2022/03/10 04:00:56;;;;;;;20.73;8.30;;;;;;;-7.59;78.90;99581.34;3191310;23;20013;-86
2022/03/10 04:02:12;;;;;;;22.80;8.68;;;;;;;-7.64;79.11;99581.81;3191405;23;20024;-85
2022/03/10 04:03:28;;;;;;;21.88;8.52;;;;;;;-7.62;78.79;99586.25;3191479;23;20520;-88
2022/03/10 04:04:43;;;;;;;20.95;8.85;;;;;;;-7.60;78.80;99583.81;3191330;23;20017;-86
2022/03/10 04:05:59;;;;;;;18.02;7.80;;;;;;;-7.62;79.33;99586.25;3191252;23;20448;-87
2022/03/10 04:07:15;;;;;;;16.63;7.40;;;;;;;-7.62;79.38;99591.31;3191912;23;20453;-87
2022/03/10 04:08:31;;;;;;;17.20;7.88;;;;;;;-7.64;79.29;99592.91;3190416;23;20052;-86
2022/03/10 04:09:46;;;;;;;21.30;8.65;;;;;;;-7.67;79.41;99591.03;3191246;23;20024;-86
2022/03/10 04:11:02;;;;;;;16.73;7.88;;;;;;;-7.69;79.52;99591.69;3191571;23;20365;-86
2022/03/10 04:12:18;;;;;;;20.20;8.27;;;;;;;-7.66;79.08;99595.31;3191275;23;20013;-85
2022/03/10 04:13:33;;;;;;;20.83;8.90;;;;;;;-7.67;79.01;99597.78;3189862;23;20071;-85
2022/03/10 04:14:49;;;;;;;24.30;8.68;;;;;;;-7.71;78.42;99591.63;3190903;23;20651;-86
2022/03/10 04:16:06;;;;;;;16.23;7.55;;;;;;;-7.77;78.02;99588.69;3190557;23;20021;-85
2022/03/10 04:17:21;;;;;;;20.98;8.25;;;;;;;-7.81;78.29;99594.34;3191537;23;20473;-86
2022/03/10 04:18:37;;;;;;;19.48;8.70;;;;;;;-7.85;78.22;99593.28;3191145;23;20063;-86
2022/03/10 04:19:53;;;;;;;18.38;7.78;;;;;;;-7.86;78.63;99594.06;3191330;23;20023;-89
2022/03/10 04:21:08;;;;;;;23.23;8.38;;;;;;;-7.89;78.76;99588.78;3191632;23;20091;-87
2022/03/10 04:22:24;;;;;;;18.77;8.43;;;;;;;-7.89;78.78;99593.88;3191353;23;20017;-87
2022/03/10 04:23:40;;;;;;;16.00;7.30;;;;;;;-7.87;78.39;99587.22;3191633;23;20528;-86
2022/03/10 04:24:55;;;;;;;18.30;8.57;;;;;;;-7.89;78.19;99588.78;3191788;23;20039;-86
2022/03/10 04:26:11;;;;;;;16.85;7.90;;;;;;;-7.91;78.37;99589.47;3191610;23;20025;-86
2022/03/10 04:27:26;;;;;;;19.92;8.30;;;;;;;-7.89;78.34;99593.88;3191847;23;20025;-86
2022/03/10 04:28:42;;;;;;;22.33;8.15;;;;;;;-7.89;79.43;99592.97;3191530;23;20028;-85
2022/03/10 04:29:58;;;;;;;19.15;8.55;;;;;;;-7.91;80.49;99602.16;3191819;23;20623;-85
2022/03/10 04:31:13;;;;;;;21.55;8.48;;;;;;;-7.88;80.56;99599.84;3191635;23;20017;-85
2022/03/10 04:32:29;;;;;;;18.33;8.63;;;;;;;-7.90;80.88;99599.72;3192023;23;20079;-84
2022/03/10 04:33:44;;;;;;;19.80;8.98;;;;;;;-7.95;81.24;99607.06;3191159;23;20017;-89
2022/03/10 04:35:00;;;;;;;19.50;9.35;;;;;;;-7.90;81.35;99601.38;3192099;23;20027;-87
2022/03/10 04:36:16;;;;;;;18.60;8.65;;;;;;;-7.91;80.37;99608.16;3191818;23;20021;-88
2022/03/10 04:37:32;;;;;;;19.08;7.82;;;;;;;-7.96;79.95;99604.44;3192305;23;20027;-88
2022/03/10 04:38:48;;;;;;;22.20;8.82;;;;;;;-7.96;79.96;99601.91;3193148;23;20017;-88
2022/03/10 04:40:08;;;;;;;18.80;8.27;;;;;;;-7.95;80.31;99607.06;3193338;23;20023;-87
2022/03/10 04:41:23;;;;;;;21.35;8.65;;;;;;;-7.95;80.71;99604.53;3193249;23;20072;-89
2022/03/10 04:42:39;;;;;;;15.18;7.13;;;;;;;-7.94;81.04;99610.50;3195513;23;20013;-88
2022/03/10 04:43:55;;;;;;;20.75;9.68;;;;;;;-7.92;80.75;99614.00;3194677;23;20095;-85
2022/03/10 04:45:11;;;;;;;22.38;9.95;;;;;;;-7.97;80.60;99608.63;3194390;23;20024;-87
2022/03/10 04:46:27;;;;;;;21.95;8.98;;;;;;;-7.94;80.69;99610.50;3201952;23;20340;-87
2022/03/10 04:47:42;;;;;;;26.88;8.70;;;;;;;-7.91;80.77;99608.16;3205484;23;20005;-90
2022/03/10 04:48:58;;;;;;;21.08;8.85;;;;;;;-7.93;80.34;99614.78;3205273;23;20017;-91
2022/03/10 04:50:15;;;;;;;23.00;9.07;;;;;;;-7.95;79.94;99613.81;3207248;23;20016;-91
2022/03/10 04:51:31;;;;;;;20.77;8.45;;;;;;;-7.97;79.65;99615.34;3203592;23;20017;-89
2022/03/10 04:52:46;;;;;;;20.52;9.18;;;;;;;-8.00;79.77;99618.59;3195221;23;20733;-87
2022/03/10 04:54:03;;;;;;;21.30;9.18;;;;;;;-8.00;79.33;99616.06;3191108;23;20031;-82
2022/03/10 04:55:18;;;;;;;23.70;8.52;;;;;;;-8.04;79.05;99621.69;3191458;23;20969;-84
2022/03/10 04:56:34;;;;;;;21.33;8.98;;;;;;;-8.06;78.63;99618.19;3191421;23;20036;-84
2022/03/10 04:57:49;;;;;;;19.67;8.70;;;;;;;-8.04;78.69;99626.78;3191260;23;20448;-85
2022/03/10 04:59:05;;;;;;;18.02;7.90;;;;;;;-8.06;79.17;99623.25;3191552;23;20070;-86
2022/03/10 05:00:21;;;;;;;19.00;8.43;;;;;;;-8.01;79.27;99631.19;3191993;23;20208;-86
2022/03/10 05:01:36;;;;;;;20.25;8.70;;;;;;;-7.92;79.22;99630.91;3190713;23;20433;-88
2022/03/10 05:02:52;;;;;;;20.20;8.48;;;;;;;-7.90;79.14;99637.88;3191581;23;20047;-87
2022/03/10 05:04:08;;;;;;;20.13;7.68;;;;;;;-7.88;78.92;99633.75;3191483;23;20563;-85
2022/03/10 05:05:23;;;;;;;21.42;8.80;;;;;;;-7.90;78.15;99637.88;3191585;23;20017;-86
2022/03/10 05:06:39;;;;;;;17.50;8.25;;;;;;;-7.94;78.07;99638.47;3191755;23;20017;-84
2022/03/10 05:07:54;;;;;;;20.23;8.75;;;;;;;-7.98;78.27;99642.44;3192143;23;20063;-86
2022/03/10 05:09:11;;;;;;;21.80;8.23;;;;;;;-8.00;78.62;99632.97;3191421;23;20060;-87
2022/03/10 05:10:27;;;;;;;24.02;9.27;;;;;;;-8.00;78.34;99643.13;3191745;23;20024;-88
2022/03/10 05:11:42;;;;;;;24.65;9.75;;;;;;;-8.02;78.22;99648.13;3191375;23;20493;-86
2022/03/10 05:13:01;;;;;;;22.48;9.20;;;;;;;-8.05;77.89;99644.50;3190621;23;20390;-86
2022/03/10 05:14:17;;;;;;;26.48;10.13;;;;;;;-8.09;78.16;99644.31;3191155;23;20069;-85
2022/03/10 05:15:33;;;;;;;21.13;10.05;;;;;;;-8.13;78.32;99647.41;3191376;23;20033;-86
2022/03/10 05:16:48;;;;;;;22.52;10.40;;;;;;;-8.16;78.88;99651.41;3191082;23;20021;-85
2022/03/10 05:18:04;;;;;;;27.10;10.27;;;;;;;-8.16;79.63;99644.66;3191084;23;20024;-83
2022/03/10 05:19:20;;;;;;;22.85;10.20;;;;;;;-8.17;79.87;99637.81;3191006;23;20405;-84
2022/03/10 05:20:35;;;;;;;22.00;9.07;;;;;;;-8.18;79.76;99640.25;3191610;23;20036;-84
2022/03/10 05:21:51;;;;;;;24.42;10.07;;;;;;;-8.20;79.58;99645.25;3191107;23;20610;-83
2022/03/10 05:23:06;;;;;;;24.95;9.13;;;;;;;-8.22;79.30;99647.66;3191669;23;20075;-86
2022/03/10 05:24:22;;;;;;;24.08;9.40;;;;;;;-8.24;79.80;99648.34;3191632;23;20324;-86
2022/03/10 05:25:41;;;;;;;23.02;9.73;;;;;;;-8.27;80.20;99648.16;3191353;23;20043;-85
2022/03/10 05:26:58;;;;;;;21.13;9.68;;;;;;;-8.28;80.33;99643.84;3191133;23;20013;-85
2022/03/10 05:28:14;;;;;;;20.08;9.27;;;;;;;-8.27;80.09;99653.22;3191195;23;20029;-85
2022/03/10 05:29:30;;;;;;;27.75;9.90;;;;;;;-8.26;80.27;99647.38;3190970;23;20021;-85
2022/03/10 05:30:47;;;;;;;25.55;9.43;;;;;;;-8.27;79.68;99645.59;3191219;23;20661;-85
2022/03/10 05:32:02;;;;;;;22.55;10.20;;;;;;;-8.27;79.94;99648.16;3191263;23;20021;-85
2022/03/10 05:33:18;;;;;;;19.50;9.43;;;;;;;-8.29;79.95;99644.63;3191175;23;20336;-85
2022/03/10 05:34:33;;;;;;;21.75;9.15;;;;;;;-8.32;80.04;99647.84;3191557;23;20039;-87
2022/03/10 05:35:49;;;;;;;22.65;9.73;;;;;;;-8.37;80.36;99647.56;3191309;23;20360;-85
2022/03/10 05:37:05;;;;;;;21.48;9.75;;;;;;;-8.34;80.11;99646.84;3190993;23;20028;-86
2022/03/10 05:38:21;;;;;;;20.20;8.85;;;;;;;-8.37;80.55;99646.66;3190913;23;20023;-86
2022/03/10 05:39:36;;;;;;;18.30;8.70;;;;;;;-8.40;80.58;99646.47;3190997;23;20021;-85
2022/03/10 05:40:53;;;;;;;18.35;7.97;;;;;;;-8.42;80.48;99648.88;3191219;23;20021;-84
2022/03/10 05:42:08;;;;;;;14.95;7.15;;;;;;;-8.45;79.85;99658.84;3191013;23;20024;-85
2022/03/10 05:43:24;;;;;;;15.75;7.32;;;;;;;-8.44;79.56;99660.59;3174254;23;20128;-86
2022/03/10 05:44:39;;;;;;;20.40;7.97;;;;;;;-8.42;80.05;99655.63;3181470;23;20453;-85
2022/03/10 05:45:55;;;;;;;23.85;8.30;;;;;;;-8.44;80.47;99660.59;3190946;23;20028;-84
2022/03/10 05:47:10;;;;;;;19.90;7.75;;;;;;;-8.43;80.98;99658.97;3189922;23;20021;-84
2022/03/10 05:48:26;;;;;;;25.25;8.73;;;;;;;-8.41;80.85;99655.72;3191105;23;20045;-85
2022/03/10 05:49:42;;;;;;;19.35;8.02;;;;;;;-8.39;80.66;99658.38;3191763;23;20128;-85
2022/03/10 05:50:58;;;;;;;20.50;7.43;;;;;;;-8.38;79.96;99666.13;3191728;23;20013;-85
2022/03/10 05:52:13;;;;;;;16.95;7.88;;;;;;;-8.37;79.86;99662.78;3191823;23;20469;-85
2022/03/10 05:53:29;;;;;;;18.35;7.85;;;;;;;-8.34;79.63;99668.84;3191877;23;20017;-84
2022/03/10 05:54:45;;;;;;;21.27;8.30;;;;;;;-8.33;79.55;99668.94;3192027;23;20025;-85
2022/03/10 05:56:00;;;;;;;18.08;7.80;;;;;;;-8.28;79.57;99669.25;3191116;23;20013;-85
2022/03/10 05:57:15;;;;;;;21.08;8.60;;;;;;;-8.22;79.40;99668.00;3191960;23;20017;-84
2022/03/10 05:58:31;;;;;;;22.23;8.45;;;;;;;-8.18;79.76;99665.66;3191666;23;20032;-85
2022/03/10 05:59:47;;;;;;;20.63;8.25;;;;;;;-8.15;79.07;99664.22;3191897;23;20093;-85